createdAt,value
2023-01-26T00:02:04.911Z,12.40
2023-01-26T00:07:06.574Z,13.20
2023-01-26T00:12:08.323Z,13.15
2023-01-26T00:17:09.983Z,12.60
2023-01-26T00:22:11.796Z,12.90
2023-01-26T00:27:13.519Z,13.70
2023-01-26T00:32:15.208Z,14.87
2023-01-26T00:37:17.216Z,13.27
2023-01-26T00:42:18.930Z,12.40
2023-01-26T00:47:20.561Z,13.50
2023-01-26T00:52:22.244Z,13.88
2023-01-26T00:57:25.358Z,14.70
2023-01-26T01:02:27.142Z,14.13
2023-01-26T01:07:28.781Z,14.23
2023-01-26T01:12:30.636Z,14.17
2023-01-26T01:17:32.382Z,14.13
2023-01-26T01:22:35.635Z,13.33
2023-01-26T01:27:37.277Z,13.20
2023-01-26T01:32:40.088Z,14.02
2023-01-26T01:37:42.149Z,13.73
2023-01-26T01:42:48.553Z,13.63
2023-01-26T01:47:50.557Z,14.40
2023-01-26T01:52:54.931Z,14.02
2023-01-26T01:58:00.295Z,13.35
2023-01-26T02:03:16.608Z,13.32
2023-01-26T02:08:21.560Z,13.10
2023-01-26T02:13:24.613Z,14.10
2023-01-26T02:18:27.856Z,13.70
2023-01-26T02:23:45.896Z,14.73
2023-01-26T02:28:48.647Z,14.02
2023-01-26T02:33:51.246Z,15.38
2023-01-26T02:39:17.766Z,15.13
2023-01-26T02:44:19.709Z,14.82
2023-01-26T02:49:40.203Z,13.20
2023-01-26T02:55:00.730Z,33.95
2023-01-26T03:00:07.434Z,17.33
2023-01-26T03:05:09.253Z,13.77
2023-01-26T03:10:12.619Z,13.25
2023-01-26T03:15:33.309Z,12.30
2023-01-26T03:20:53.691Z,13.15
2023-01-26T03:26:15.549Z,13.95
2023-01-26T03:31:18.375Z,12.50
2023-01-26T03:36:20.341Z,13.75
2023-01-26T03:41:40.529Z,12.17
2023-01-26T03:47:01.072Z,12.80
2023-01-26T03:52:22.471Z,12.88
2023-01-26T03:57:25.582Z,13.07
2023-01-26T04:02:46.045Z,12.20
2023-01-26T04:08:06.673Z,12.10
2023-01-26T04:13:27.624Z,11.60
2023-01-26T04:18:54.455Z,11.45
2023-01-26T04:23:58.064Z,11.82
2023-01-26T04:29:01.373Z,11.43
2023-01-26T04:34:05.377Z,10.48
2023-01-26T04:39:08.101Z,10.82
2023-01-26T04:44:11.631Z,11.52
2023-01-26T04:49:13.581Z,11.50
2023-01-26T04:54:15.595Z,12.15
2023-01-26T04:59:19.594Z,11.98
2023-01-26T05:04:21.975Z,11.80
2023-01-26T05:09:23.876Z,11.67
2023-01-26T05:14:42.454Z,12.35
2023-01-26T05:19:58.282Z,12.57
2023-01-26T05:25:32.141Z,11.90
2023-01-26T05:30:38.649Z,11.60
2023-01-26T05:35:40.399Z,12.63
2023-01-26T05:40:44.845Z,11.30
2023-01-26T05:45:46.923Z,11.57
2023-01-26T05:50:51.021Z,12.00
2023-01-26T05:55:55.030Z,11.80
2023-01-26T06:01:04.468Z,11.10
2023-01-26T06:06:13.526Z,12.02
2023-01-26T06:11:25.032Z,11.68
2023-01-26T06:16:54.202Z,11.25
2023-01-26T06:21:56.096Z,11.57
2023-01-26T06:26:58.012Z,11.90
2023-01-26T06:32:00.543Z,12.07
2023-01-26T06:37:04.470Z,12.57
2023-01-26T06:42:10.096Z,10.38
2023-01-26T06:47:14.869Z,11.25
2023-01-26T06:52:31.202Z,10.95
2023-01-26T06:57:44.673Z,10.35
2023-01-26T07:03:06.520Z,11.30
2023-01-26T07:08:08.789Z,10.85
2023-01-26T07:13:10.475Z,10.85
2023-01-26T07:18:12.271Z,11.10
2023-01-26T07:23:13.988Z,11.90
2023-01-26T07:28:15.643Z,11.13
2023-01-26T07:33:17.214Z,10.40
2023-01-26T07:38:19.173Z,10.50
2023-01-26T07:43:21.360Z,10.37
2023-01-26T07:48:24.471Z,10.95
2023-01-26T07:53:29.124Z,10.80
2023-01-26T07:58:30.795Z,11.20
2023-01-26T08:03:32.609Z,10.25
2023-01-26T08:08:34.691Z,10.80
2023-01-26T08:13:36.484Z,10.57
2023-01-26T08:18:39.754Z,10.53
2023-01-26T08:23:41.582Z,11.02
2023-01-26T08:28:43.951Z,11.00
2023-01-26T08:33:50.825Z,10.70
2023-01-26T08:38:54.062Z,10.75
2023-01-26T08:43:59.159Z,10.15
2023-01-26T08:49:00.884Z,11.02
2023-01-26T08:54:05.663Z,11.10
2023-01-26T08:59:07.638Z,11.05
2023-01-26T09:04:09.247Z,13.77
2023-01-26T09:09:13.178Z,10.82
2023-01-26T09:14:15.184Z,10.73
2023-01-26T09:19:16.880Z,10.40
2023-01-26T09:24:18.604Z,10.55
2023-01-26T09:29:20.436Z,9.20
2023-01-26T09:34:22.188Z,10.73
2023-01-26T09:39:23.859Z,9.93
2023-01-26T09:44:30.603Z,9.68
2023-01-26T09:49:50.847Z,9.85
2023-01-26T09:54:59.657Z,10.25
2023-01-26T10:00:09.556Z,10.48
2023-01-26T10:05:20.280Z,10.98
2023-01-26T10:10:28.645Z,9.70
2023-01-26T10:15:39.139Z,9.43
2023-01-26T10:20:45.456Z,9.32
2023-01-26T10:25:47.950Z,8.68
2023-01-26T10:30:51.330Z,8.80
2023-01-26T10:35:53.762Z,8.90
2023-01-26T10:40:55.917Z,8.45
2023-01-26T10:45:57.608Z,9.20
2023-01-26T10:51:16.623Z,12.20
2023-01-26T10:56:18.450Z,8.25
2023-01-26T11:01:23.091Z,11.20
2023-01-26T11:06:28.990Z,10.85
2023-01-26T11:11:30.654Z,12.23
2023-01-26T11:16:32.637Z,11.32
2023-01-26T11:21:39.114Z,11.70
2023-01-26T11:26:43.699Z,11.57
2023-01-26T11:32:06.566Z,11.77
2023-01-26T11:37:30.463Z,10.85
2023-01-26T11:42:44.136Z,12.30
2023-01-26T11:48:12.321Z,12.10
2023-01-26T11:53:35.299Z,12.50
2023-01-26T12:03:52.801Z,13.43
2023-01-26T12:09:00.039Z,11.10
2023-01-26T12:14:50.531Z,13.60
2023-01-26T12:20:05.805Z,12.10
2023-01-26T12:25:40.512Z,14.25
2023-01-26T12:31:01.310Z,11.85
2023-01-26T12:36:12.693Z,13.00
2023-01-26T12:41:33.468Z,13.02
2023-01-26T12:46:39.118Z,14.05
2023-01-26T12:51:48.050Z,13.00
2023-01-26T12:56:56.699Z,12.57
2023-01-26T13:01:58.770Z,12.13
2023-01-26T13:07:28.206Z,12.57
2023-01-26T13:12:57.453Z,11.95
2023-01-26T13:18:01.792Z,11.63
2023-01-26T13:23:07.619Z,10.80
2023-01-26T13:28:13.133Z,11.60
2023-01-26T13:33:22.841Z,12.18
2023-01-26T13:38:36.867Z,11.65
2023-01-26T13:43:51.493Z,15.18
2023-01-26T13:48:55.181Z,14.32
2023-01-26T13:54:11.707Z,11.05
2023-01-26T13:59:19.474Z,10.25
2023-01-26T14:04:23.720Z,11.00
2023-01-26T14:09:31.599Z,9.93
2023-01-26T14:14:36.293Z,9.35
2023-01-26T14:19:42.247Z,9.65
2023-01-26T14:24:48.482Z,9.20
2023-01-26T14:29:50.215Z,9.68
2023-01-26T14:34:57.642Z,9.80
2023-01-26T14:40:21.454Z,10.65
2023-01-26T14:45:31.187Z,9.57
2023-01-26T14:50:33.880Z,10.82
2023-01-26T15:00:38.671Z,9.65
2023-01-26T15:05:43.411Z,9.88
2023-01-26T15:11:19.533Z,10.02
2023-01-26T15:16:45.573Z,9.95
2023-01-26T15:21:47.512Z,10.02
2023-01-26T15:26:51.370Z,9.77
2023-01-26T15:31:56.005Z,9.48
2023-01-26T15:36:58.748Z,11.15
2023-01-26T15:47:03.437Z,11.40
2023-01-26T15:52:37.775Z,12.40
2023-01-26T15:57:39.482Z,12.35
2023-01-26T16:02:41.445Z,10.80
2023-01-26T16:07:43.534Z,10.23
2023-01-26T16:12:48.498Z,9.63
2023-01-26T16:17:50.153Z,11.10
2023-01-26T16:22:51.754Z,10.88
2023-01-26T16:27:54.918Z,11.35
2023-01-26T16:32:56.794Z,11.32
2023-01-26T16:37:58.440Z,17.63
2023-01-26T16:43:01.732Z,12.53
2023-01-26T16:48:12.503Z,13.35
2023-01-26T16:53:26.515Z,10.27
2023-01-26T16:58:30.489Z,10.23
2023-01-26T17:03:32.894Z,11.30
2023-01-26T17:08:34.523Z,10.48
2023-01-26T17:13:36.629Z,10.63
2023-01-26T17:18:38.732Z,12.37
2023-01-26T17:23:44.285Z,11.95
2023-01-26T17:28:47.325Z,12.73
2023-01-26T17:33:50.868Z,12.00
2023-01-26T17:38:53.095Z,11.80
2023-01-26T17:43:54.840Z,11.65
2023-01-26T17:48:56.599Z,12.00
2023-01-26T17:53:58.766Z,11.20
2023-01-26T17:59:00.563Z,11.20
2023-01-26T18:04:02.619Z,11.43
2023-01-26T18:09:05.282Z,13.18
2023-01-26T18:19:09.030Z,11.55
2023-01-26T18:24:10.785Z,11.13
2023-01-26T18:29:12.871Z,11.63
2023-01-26T18:34:15.708Z,10.20
2023-01-26T18:39:17.480Z,10.38
2023-01-26T18:44:19.298Z,11.20
2023-01-26T18:49:21.447Z,9.97
2023-01-26T18:54:24.359Z,10.57
2023-01-26T18:59:26.109Z,9.98
2023-01-26T19:04:27.826Z,10.60
2023-01-26T19:09:35.834Z,10.43
2023-01-26T19:14:37.530Z,9.82
2023-01-26T19:19:41.024Z,10.73
2023-01-26T19:24:43.053Z,9.63
2023-01-26T19:29:44.722Z,9.77
2023-01-26T19:34:46.385Z,10.23
2023-01-26T19:39:47.989Z,10.32
2023-01-26T19:44:49.801Z,10.50
2023-01-26T19:49:51.429Z,11.00
2023-01-26T19:54:53.094Z,9.73
2023-01-26T19:59:55.004Z,9.70
2023-01-26T20:04:56.746Z,11.18
2023-01-26T20:09:58.544Z,10.90
2023-01-26T20:15:00.794Z,13.63
2023-01-26T20:20:03.288Z,10.38
2023-01-26T20:25:06.392Z,11.40
2023-01-26T20:30:08.828Z,11.50
2023-01-26T20:35:14.207Z,11.05
2023-01-26T20:40:16.025Z,11.25
2023-01-26T20:45:18.427Z,10.53
2023-01-26T20:50:20.543Z,10.80
2023-01-26T20:55:22.176Z,10.93
2023-01-26T21:00:23.881Z,9.80
2023-01-26T21:05:25.723Z,8.93
2023-01-26T21:10:27.466Z,8.87
2023-01-26T21:15:29.630Z,9.50
2023-01-26T21:20:31.483Z,8.35
2023-01-26T21:25:33.163Z,8.07
2023-01-26T21:30:34.814Z,7.25
2023-01-26T21:35:36.453Z,8.10
2023-01-26T21:40:38.103Z,8.40
2023-01-26T21:45:54.988Z,8.27
2023-01-26T21:51:18.458Z,8.25
2023-01-26T21:56:20.123Z,9.43
2023-01-26T22:01:22.853Z,8.50
2023-01-26T22:06:25.797Z,9.10
2023-01-26T22:11:28.291Z,8.45
2023-01-26T22:16:30.317Z,8.13
2023-01-26T22:21:32.596Z,7.78
2023-01-26T22:26:34.325Z,7.75
2023-01-26T22:31:36.038Z,7.53
2023-01-26T22:36:37.964Z,8.10
2023-01-26T22:41:40.093Z,7.90
2023-01-26T22:46:41.803Z,8.27
2023-01-26T22:51:43.416Z,7.85
2023-01-26T22:56:45.293Z,8.03
2023-01-26T23:01:47.001Z,8.67
2023-01-26T23:06:48.769Z,8.27
2023-01-26T23:11:50.448Z,8.27
2023-01-26T23:16:52.145Z,9.37
2023-01-26T23:21:54.074Z,9.43
2023-01-26T23:26:55.768Z,9.80
2023-01-26T23:31:57.458Z,9.43
2023-01-26T23:36:59.132Z,9.93
2023-01-26T23:42:00.779Z,9.80
2023-01-26T23:47:02.488Z,9.87
2023-01-26T23:52:04.409Z,10.93
2023-01-26T23:57:06.090Z,9.98
